M I D A S
Marine Information and Data Acquisition System
Tripno 1995 of the Zeeleeuw from 2010-10-15 06:34:42 to 2010-10-15 12:35:42
Back to CruiseResearch ActivitiesStationsMapUnderway DataData graphs

EquipmentUnitsComment
TimeDGPSUTC
LatitudeDGPSDM.mWGS84
LongitudeDGPSDM.mWGS84
TemperatureSBE03/SBE38deg celciusITS90
ConductivitySBE21S/mITS90
SalinitySBE21 Practical Salinity Units
ChlorophylAChelsea fluorimeterg/lCalibrated in Aceton
Missing or incorrect values are displayed as -999
Sea surface data collected by the RV Zeeleeuw from 2010-10-15 05:58:29 to 2010-10-15 13:40:07
Time Latitude Longitude Temperature Conductivity Salinity ChlorophylA
2010-10-15 05:59:34 51°13.664 2°55.96 20.5252 0.064954 0.342901 -0.687152
2010-10-15 06:00:34 51°13.664 2°55.96 20.5354 0.064954 0.342885 -0.687152
2010-10-15 06:01:34 51°13.664 2°55.96 20.5457 0.064954 0.342874 -0.721976
2010-10-15 06:02:34 51°13.664 2°55.961 20.5479 0.064954 0.342864 -0.721976
2010-10-15 06:03:34 51°13.663 2°55.96 20.5327 0.064954 0.342848 -0.687152
2010-10-15 06:04:34 51°13.663 2°55.96 20.5512 0.064954 0.342838 -0.721976
2010-10-15 06:05:33 51°13.663 2°55.961 20.5392 0.065058 0.343387 -0.721976
2010-10-15 06:06:34 51°13.663 2°55.96 20.5541 0.064954 0.342811 -0.687152
2010-10-15 06:07:34 51°13.663 2°55.959 20.5578 0.065058 0.343361 -0.652328
2010-10-15 06:08:34 51°13.663 2°55.959 20.577 0.065058 0.34335 -0.687152
2010-10-15 06:09:34 51°13.663 2°55.959 20.5699 0.065058 0.34334 -0.721976
2010-10-15 06:10:34 51°13.662 2°55.961 20.5674 0.065058 0.343324 -0.721976
2010-10-15 06:11:34 51°13.662 2°55.961 20.5694 0.065058 0.343314 -0.721976
2010-10-15 06:12:34 51°13.662 2°55.962 20.5796 0.065058 0.343303 -0.687152
2010-10-15 06:13:34 51°13.662 2°55.962 20.5963 0.065058 0.343292 -0.687152
2010-10-15 06:14:34 51°13.662 2°55.961 20.5962 0.065058 0.343282 -0.687152
2010-10-15 06:15:34 51°13.662 2°55.961 20.5897 0.065058 0.343266 -0.687152
2010-10-15 06:16:34 51°13.662 2°55.96 20.5948 0.065058 0.343256 -0.721976
2010-10-15 06:17:34 51°13.662 2°55.96 20.6138 0.065058 0.343245 -0.687152
2010-10-15 06:18:35 51°13.662 2°55.961 20.6078 0.065058 0.343235 -0.721976
2010-10-15 06:19:34 51°13.662 2°55.961 20.6079 0.065058 0.343219 -0.721976
2010-10-15 06:20:32 51°13.662 2°55.961 20.6059 0.065058 0.343213 -0.687152
2010-10-15 06:21:32 51°13.662 2°55.961 20.6097 0.065058 0.343198 -0.687152
2010-10-15 06:22:32 51°13.663 2°55.961 20.6133 0.065058 0.343192 -0.721976
2010-10-15 06:23:32 51°13.663 2°55.961 20.6325 0.065162 0.343758 -0.721976
2010-10-15 06:24:32 51°13.663 2°55.96 20.6407 0.065162 0.343752 -0.687152
2010-10-15 06:25:32 51°13.662 2°55.961 20.6316 0.065162 0.343752 -0.687152
2010-10-15 06:26:32 51°13.662 2°55.96 20.6473 0.065162 0.343752 -0.687152
2010-10-15 06:27:32 51°13.662 2°55.96 20.6447 0.065162 0.343758 -0.687152
2010-10-15 06:28:32 51°13.662 2°55.96 20.6144 0.065162 0.343747 -0.687152
2010-10-15 06:29:32 51°13.663 2°55.959 20.63 0.065162 0.343752 -0.687152
2010-10-15 06:30:32 51°13.664 2°55.958 20.6448 0.065162 0.343747 -0.687152
2010-10-15 06:31:32 51°13.664 2°55.957 20.6558 0.065162 0.343747 -0.721976
2010-10-15 06:32:32 51°13.664 2°55.958 20.6488 0.065162 0.343742 -0.687152
2010-10-15 06:33:32 51°13.663 2°55.958 20.6647 0.065162 0.343736 -0.721976
2010-10-15 06:34:32 51°13.664 2°55.956 20.6449 0.065162 0.343731 -0.721976
2010-10-15 06:35:36 51°13.677 2°55.904 20.6722 0.065162 0.343742 -0.721976
2010-10-15 06:36:36 51°13.694 2°55.794 20.6681 0.065162 0.343736 -0.721976
2010-10-15 06:37:35 51°13.693 2°55.727 20.6912 0.065162 0.343731 -0.721976
2010-10-15 06:38:33 51°13.717 2°55.731 20.7744 0.065266 0.344312 -0.687152
2010-10-15 06:39:32 51°13.793 2°55.666 20.4259 0.065266 0.344296 -0.687152
2010-10-15 06:40:33 51°13.925 2°55.562 20.2354 0.065266 0.344318 -0.687152
2010-10-15 06:41:32 51°14.074 2°55.45 20.3114 0.065266 0.344312 -0.687152
2010-10-15 06:42:32 51°14.211 2°55.333 20.4157 0.065266 0.344307 -0.652328
2010-10-15 06:43:32 51°14.335 2°55.212 20.3323 0.065266 0.344302 -0.721976
2010-10-15 06:44:32 51°14.459 2°55.091 20.3281 0.065266 0.344312 -0.687152
2010-10-15 06:45:32 51°14.607 2°54.957 20.314 0.065266 0.344291 -0.721976
2010-10-15 06:46:32 51°14.785 2°54.8 20.2587 0.065266 0.344281 -0.652328
2010-10-15 06:47:32 51°14.987 2°54.672 20.1371 0.065266 0.344286 -0.687152
2010-10-15 06:48:32 51°15.163 2°54.482 20.1878 0.065266 0.344281 -0.687152
2010-10-15 06:49:32 51°15.331 2°54.261 20.2103 0.065266 0.344296 -0.687152
2010-10-15 06:50:32 51°15.492 2°54.03 20.2306 0.065266 0.344307 -0.687152
2010-10-15 06:51:32 51°15.646 2°53.789 15.2932 0.373151 2.111981 -0.373735
2010-10-15 06:52:32 51°15.799 2°53.549 14.932 3.785506 29.948461 -0.129967
2010-10-15 06:53:32 51°15.982 2°53.362 14.7866 3.844891 30.770638 -0.164791
2010-10-15 06:54:32 51°16.173 2°53.189 14.6914 3.866622 31.115118 -0.164791
2010-10-15 06:55:32 51°16.366 2°53.014 14.6722 3.86367 31.170089 -0.199615
2010-10-15 06:56:32 51°16.559 2°52.843 14.7408 3.871475 31.24626 -0.199615
2010-10-15 06:57:32 51°16.758 2°52.695 14.7448 3.894891 31.419559 -0.269263
2010-10-15 06:58:32 51°16.958 2°52.548 14.7574 3.898267 31.443177 -0.269263
2010-10-15 06:59:32 51°17.159 2°52.397 14.7879 3.902275 31.474914 -0.199615
2010-10-15 07:00:32 51°17.36 2°52.245 14.7924 3.907338 31.510018 -0.234439
2010-10-15 07:01:32 51°17.562 2°52.09 14.8167 3.914827 31.565674 -0.199615
2010-10-15 07:02:32 51°17.763 2°51.935 14.8332 3.919679 31.595795 -0.164791
2010-10-15 07:03:32 51°17.962 2°51.781 14.861 3.930649 31.678376 -0.164791
2010-10-15 07:04:32 51°18.161 2°51.626 14.8443 3.934869 31.710127 -0.234439
2010-10-15 07:05:32 51°18.361 2°51.469 14.8271 3.931493 31.688404 -0.199615
2010-10-15 07:06:32 51°18.56 2°51.313 14.8251 3.924004 31.636467 -0.234439
2010-10-15 07:07:32 51°18.76 2°51.157 14.8472 3.925164 31.643825 -0.199615
2010-10-15 07:08:32 51°18.959 2°50.999 14.8708 3.932232 31.690743 -0.234439
2010-10-15 07:09:32 51°19.159 2°50.842 14.8884 3.93951 31.73523 -0.304087
2010-10-15 07:10:32 51°19.358 2°50.684 14.8918 3.944257 31.767398 -0.338911
2010-10-15 07:11:32 51°19.556 2°50.525 14.9675 3.955333 31.860657 -0.338911
2010-10-15 07:12:32 51°19.751 2°50.363 15.0327 3.983393 32.051987 -0.373735
2010-10-15 07:13:32 51°19.947 2°50.203 15.0493 4.00006 32.15442 -0.373735
2010-10-15 07:14:32 51°20.145 2°50.045 15.0681 4.004807 32.18272 -0.408559
2010-10-15 07:15:32 51°20.339 2°49.889 15.0756 4.009554 32.212862 -0.408559
2010-10-15 07:16:32 51°20.537 2°49.734 15.054 4.013352 32.240684 -0.408559
2010-10-15 07:17:32 51°20.734 2°49.577 15.048 4.009977 32.223458 -0.373735
2010-10-15 07:18:32 51°20.933 2°49.418 15.0499 4.010082 32.232463 -0.408559
2010-10-15 07:19:32 51°21.145 2°49.304 15.0404 4.010715 32.237515 -0.443383
2010-10-15 07:20:32 51°21.363 2°49.203 15.0287 4.010399 32.241502 -0.408559
2010-10-15 07:21:32 51°21.552 2°49.021 15.0165 4.00639 32.223555 -0.443383
2010-10-15 07:22:32 51°21.727 2°48.807 15.0094 4.005546 32.219709 -0.373735
2010-10-15 07:23:32 51°21.903 2°48.588 15.0143 4.003542 32.209178 -0.373735
2010-10-15 07:24:32 51°22.061 2°48.355 15.2258 4.02654 32.372525 -0.373735
2010-10-15 07:25:32 51°22.223 2°48.125 15.2222 4.08277 32.73935 -0.373735
2010-10-15 07:26:32 51°22.385 2°47.897 15.1792 4.072853 32.671273 -0.408559
2010-10-15 07:27:32 51°22.55 2°47.671 15.1813 4.065046 32.622662 -0.373735
2010-10-15 07:28:32 51°22.716 2°47.444 15.1826 4.068739 32.65322 -0.408559
2010-10-15 07:29:32 51°22.883 2°47.217 15.2246 4.073803 32.690419 -0.373735
2010-10-15 07:30:32 51°23.048 2°46.989 15.2338 4.046055 32.411704 -0.373735
2010-10-15 07:31:32 51°23.216 2°46.76 15.2596 4.093215 32.820888 -0.373735
2010-10-15 07:32:32 51°23.384 2°46.53 15.2719 4.098279 32.851747 -0.373735
2010-10-15 07:33:32 51°23.581 2°46.37 15.3314 4.102816 32.877242 -0.373735
2010-10-15 07:34:32 51°23.793 2°46.252 15.4022 4.129192 33.053231 -0.338911
2010-10-15 07:35:32 51°24.009 2°46.143 15.4046 4.14428 33.146361 -0.304087
2010-10-15 07:36:32 51°24.214 2°46.003 15.381 4.150505 33.205757 -0.304087
2010-10-15 07:37:32 51°24.374 2°45.772 15.3799 4.148606 33.203345 -0.269263
2010-10-15 07:38:32 51°24.483 2°45.48 15.3864 4.14945 33.210888 -0.304087
2010-10-15 07:39:32 51°24.57 2°45.171 15.3962 4.157152 33.266416 -0.338911
2010-10-15 07:40:32 51°24.634 2°44.85 15.4244 4.159157 33.279891 -0.304087
2010-10-15 07:41:32 51°24.662 2°44.526 15.4349 4.170763 33.360741 -0.269263
2010-10-15 07:42:32 51°24.649 2°44.301 15.4002 4.166226 33.326558 -0.269263
2010-10-15 07:43:32 51°24.638 2°44.13 15.3934 4.158208 33.278382 -0.304087
2010-10-15 07:44:32 51°24.641 2°44.014 15.4021 4.162112 33.309466 -0.269263
2010-10-15 07:45:32 51°24.633 2°43.925 15.4035 4.166543 33.344629 -0.304087
2010-10-15 07:46:32 51°24.645 2°43.85 15.3951 4.166543 33.349713 -0.304087
2010-10-15 07:47:32 51°24.643 2°43.796 15.4093 4.168759 33.366978 -0.269263
2010-10-15 07:48:32 51°24.66 2°43.746 15.3905 4.170869 33.378846 -0.269263
2010-10-15 07:49:32 51°24.677 2°43.725 15.3846 4.167282 33.361402 -0.304087
2010-10-15 07:50:32 51°24.686 2°43.729 15.4066 4.16897 33.378406 -0.304087
2010-10-15 07:51:32 51°24.695 2°43.736 15.4276 4.176673 33.428176 -0.304087
2010-10-15 07:52:32 51°24.705 2°43.735 15.4365 4.181948 33.461319 -0.338911
2010-10-15 07:53:32 51°24.713 2°43.682 15.4286 4.184481 33.477579 -0.338911
2010-10-15 07:54:32 51°24.678 2°43.673 15.4354 4.18332 33.471667 -0.269263
2010-10-15 07:55:32 51°24.669 2°43.697 15.4293 4.182265 33.458414 -0.304087
2010-10-15 07:56:32 51°24.669 2°43.718 15.4276 4.180682 33.448729 -0.304087
2010-10-15 07:57:32 51°24.673 2°43.737 15.4184 4.180999 33.456018 -0.269263
2010-10-15 07:58:32 51°24.677 2°43.755 15.4165 4.179944 33.451046 -0.269263
2010-10-15 07:59:32 51°24.682 2°43.767 15.4087 4.179099 33.446686 -0.338911
2010-10-15 08:00:34 51°24.706 2°43.745 15.429 4.179099 33.449235 -0.304087
2010-10-15 08:01:34 51°24.706 2°43.746 15.4366 4.18543 33.489254 -0.269263
2010-10-15 08:02:32 51°24.69 2°43.74 15.4459 4.186696 33.49547 -0.269263
2010-10-15 08:03:32 51°24.673 2°43.722 15.45 4.188174 33.504845 -0.304087
2010-10-15 08:04:32 51°24.669 2°43.709 15.436 4.189018 33.507286 -0.304087
2010-10-15 08:05:32 51°24.669 2°43.702 15.4234 4.185958 33.490144 -0.304087
2010-10-15 08:06:32 51°24.671 2°43.694 15.4275 4.18332 33.47358 -0.304087
2010-10-15 08:07:32 51°24.672 2°43.688 15.4322 4.183109 33.474243 -0.304087
2010-10-15 08:08:32 51°24.674 2°43.682 15.433 4.186802 33.498326 -0.338911
2010-10-15 08:09:32 51°24.674 2°43.677 15.4465 4.185852 33.488563 -0.304087
2010-10-15 08:10:32 51°24.683 2°43.688 15.4409 4.188807 33.508589 -0.338911
2010-10-15 08:11:35 51°24.7 2°43.723 15.4637 4.187962 33.499133 -0.304087
2010-10-15 08:12:35 51°24.68 2°43.718 15.4829 4.19672 33.561434 -0.338911
2010-10-15 08:13:33 51°24.66 2°43.719 15.4241 4.192077 33.523784 -0.234439
2010-10-15 08:14:32 51°24.659 2°43.726 15.4332 4.173718 33.382051 -0.269263
2010-10-15 08:15:32 51°24.661 2°43.735 15.4291 4.177833 33.412454 -0.269263
2010-10-15 08:16:32 51°24.662 2°43.745 15.4283 4.178255 33.417496 -0.234439
2010-10-15 08:17:32 51°24.663 2°43.757 15.4381 4.177411 33.409956 -0.269263
2010-10-15 08:18:32 51°24.665 2°43.77 15.441 4.178994 33.422822 -0.269263
2010-10-15 08:19:32 51°24.661 2°43.788 15.4338 4.180682 33.437905 -0.234439
2010-10-15 08:20:32 51°24.647 2°43.8 15.4927 4.184269 33.463588 -0.304087
2010-10-15 08:21:36 51°24.654 2°43.801 15.4911 4.200413 33.563148 -0.304087
2010-10-15 08:22:34 51°24.657 2°43.76 15.4398 4.197458 33.542511 -0.304087
2010-10-15 08:23:32 51°24.668 2°43.733 15.4267 4.188068 33.496888 -0.304087
2010-10-15 08:24:32 51°24.679 2°43.725 15.4321 4.183742 33.474165 -0.269263
2010-10-15 08:25:32 51°24.686 2°43.727 15.4607 4.188068 33.498801 -0.234439
2010-10-15 08:26:32 51°24.693 2°43.729 15.4601 4.195559 33.544683 -0.304087
2010-10-15 08:27:32 51°24.699 2°43.731 15.4582 4.196087 33.548119 -0.269263
2010-10-15 08:28:32 51°24.705 2°43.735 15.4463 4.194821 33.539999 -0.304087
2010-10-15 08:29:32 51°24.707 2°43.748 15.4474 4.190284 33.510309 -0.304087
2010-10-15 08:30:35 51°24.706 2°43.772 15.4749 4.196298 33.550642 -0.304087
2010-10-15 08:31:34 51°24.68 2°43.718 15.431 4.203262 33.594967 -0.304087
2010-10-15 08:32:32 51°24.665 2°43.701 15.4177 4.186274 33.492335 -0.234439
2010-10-15 08:33:32 51°24.662 2°43.695 15.4395 4.186169 33.493943 -0.234439
2010-10-15 08:34:32 51°24.662 2°43.688 15.4286 4.189229 33.511723 -0.234439
2010-10-15 08:35:32 51°24.664 2°43.68 15.4254 4.189545 33.516466 -0.304087
2010-10-15 08:36:32 51°24.668 2°43.676 15.4253 4.188807 33.510503 -0.304087
2010-10-15 08:37:32 51°24.676 2°43.691 15.4725 4.191656 33.530221 -0.269263
2010-10-15 08:38:32 51°24.691 2°43.719 15.4639 4.199569 33.57603 -0.304087
2010-10-15 08:39:32 51°24.678 2°43.707 15.4581 4.19672 33.557603 -0.304087
2010-10-15 08:40:32 51°24.658 2°43.683 15.3956 4.188912 33.51017 -0.199615
2010-10-15 08:41:32 51°24.652 2°43.682 15.4117 4.179733 33.452346 -0.269263
2010-10-15 08:42:32 51°24.653 2°43.686 15.4164 4.183742 33.477352 -0.304087
2010-10-15 08:43:32 51°24.656 2°43.691 15.3935 4.181948 33.464506 -0.269263
2010-10-15 08:44:32 51°24.658 2°43.695 15.3836 4.1772 33.437989 -0.269263
2010-10-15 08:45:32 51°24.658 2°43.703 15.3856 4.172663 33.404427 -0.269263
2010-10-15 08:46:32 51°24.662 2°43.706 15.3877 4.173402 33.408484 -0.304087
2010-10-15 08:47:32 51°24.667 2°43.709 15.3849 4.174457 33.417919 -0.234439
2010-10-15 08:48:32 51°24.671 2°43.713 15.3857 4.173296 33.409451 -0.234439
2010-10-15 08:49:32 51°24.674 2°43.719 15.3838 4.174351 33.418886 -0.234439
2010-10-15 08:50:32 51°24.679 2°43.725 15.3804 4.173718 33.410678 -0.234439
2010-10-15 08:51:32 51°24.682 2°43.73 15.3873 4.171608 33.397539 -0.269263
2010-10-15 08:52:32 51°24.686 2°43.737 15.3835 4.173402 33.409758 -0.234439
2010-10-15 08:53:32 51°24.689 2°43.743 15.3816 4.171819 33.398789 -0.269263
2010-10-15 08:54:32 51°24.693 2°43.749 15.3872 4.17298 33.409168 -0.269263
2010-10-15 08:55:32 51°24.696 2°43.755 15.3788 4.173824 33.413532 -0.234439
2010-10-15 08:56:32 51°24.699 2°43.761 15.3791 4.172347 33.407327 -0.234439
2010-10-15 08:57:32 51°24.702 2°43.767 15.3785 4.170236 33.387819 -0.269263
2010-10-15 08:58:32 51°24.705 2°43.774 15.3762 4.172241 33.405747 -0.199615
2010-10-15 08:59:32 51°24.708 2°43.782 15.3769 4.170025 33.387842 -0.234439
2010-10-15 09:00:32 51°24.708 2°43.795 15.3769 4.171397 33.400745 -0.234439
2010-10-15 09:01:32 51°24.709 2°43.859 15.3876 4.172663 33.408884 -0.269263
2010-10-15 09:02:32 51°24.771 2°43.996 15.3914 4.17414 33.416362 -0.269263
2010-10-15 09:03:32 51°24.864 2°44.195 15.4112 4.176251 33.42695 -0.234439
2010-10-15 09:04:32 51°24.957 2°44.407 15.452 4.180155 33.451021 -0.199615
2010-10-15 09:05:32 51°25.055 2°44.623 15.4483 4.193133 33.530021 -0.234439
2010-10-15 09:06:32 51°25.17 2°44.877 15.4595 4.193133 33.524281 -0.234439
2010-10-15 09:07:32 51°25.305 2°45.131 15.4426 4.188279 33.486665 -0.234439
2010-10-15 09:08:32 51°25.468 2°45.376 15.4583 4.18448 33.451468 -0.199615
2010-10-15 09:09:32 51°25.632 2°45.622 15.4672 4.183108 33.437311 -0.234439
2010-10-15 09:10:32 51°25.793 2°45.872 15.4664 4.182792 33.431306 -0.234439
2010-10-15 09:11:32 51°25.954 2°46.123 15.4507 4.183425 33.431236 -0.234439
2010-10-15 09:12:32 51°26.115 2°46.378 15.4322 4.179732 33.407165 -0.234439
2010-10-15 09:13:32 51°26.277 2°46.63 15.4098 4.175089 33.377148 -0.269263
2010-10-15 09:14:32 51°26.438 2°46.886 15.4376 4.168126 33.332734 -0.199615
2010-10-15 09:15:32 51°26.619 2°47.104 15.4197 4.169603 33.344024 -0.234439
2010-10-15 09:16:32 51°26.806 2°47.307 15.3936 4.166226 33.324654 -0.164791
2010-10-15 09:17:32 51°26.993 2°47.513 15.3747 4.16285 33.303373 -0.164791
2010-10-15 09:18:32 51°27.18 2°47.719 15.3777 4.15462 33.250125 -0.164791
2010-10-15 09:19:32 51°27.369 2°47.927 15.3782 4.150927 33.213958 -0.164791
2010-10-15 09:20:32 51°27.557 2°48.134 15.3822 4.149978 33.203575 -0.164791
2010-10-15 09:21:32 51°27.746 2°48.344 15.3792 4.151138 33.212678 -0.199615
2010-10-15 09:22:32 51°27.933 2°48.56 15.3896 4.151771 33.217068 -0.199615
2010-10-15 09:23:32 51°28.115 2°48.785 15.4032 4.153881 33.228956 -0.164791
2010-10-15 09:24:32 51°28.291 2°49.018 15.3977 4.15462 33.234287 -0.129967
2010-10-15 09:25:32 51°28.469 2°49.251 15.4116 4.154409 33.226072 -0.164791
2010-10-15 09:26:32 51°28.647 2°49.479 15.4074 4.157258 33.241385 -0.129967
2010-10-15 09:27:32 51°28.822 2°49.704 15.5129 4.164221 33.292798 -0.199615
2010-10-15 09:28:32 51°28.997 2°49.931 15.51 4.197775 33.523037 -0.164791
2010-10-15 09:29:32 51°29.172 2°50.16 15.5135 4.198724 33.53151 -0.199615
2010-10-15 09:30:32 51°29.338 2°50.4 15.5 4.199041 33.531787 -0.164791
2010-10-15 09:31:32 51°29.504 2°50.643 15.4986 4.199252 33.541951 -0.199615
2010-10-15 09:32:32 51°29.67 2°50.885 15.4966 4.201151 33.561451 -0.234439
2010-10-15 09:33:32 51°29.835 2°51.129 15.4917 4.200518 33.556438 -0.199615
2010-10-15 09:34:32 51°30 2°51.368 15.4462 4.197986 33.54467 -0.199615
2010-10-15 09:35:32 51°30.167 2°51.609 15.4341 4.192289 33.525031 -0.199615
2010-10-15 09:36:32 51°30.335 2°51.849 15.434 4.18754 33.492174 -0.129967
2010-10-15 09:37:32 51°30.504 2°52.089 15.4268 4.186591 33.48369 -0.164791
2010-10-15 09:38:32 51°30.673 2°52.329 15.4292 4.187118 33.49414 -0.129967
2010-10-15 09:39:32 51°30.843 2°52.567 15.4424 4.191656 33.530221 -0.164791
2010-10-15 09:40:32 51°31.013 2°52.805 15.4459 4.193238 33.536068 -0.129967
2010-10-15 09:41:32 51°31.18 2°53.045 15.4604 4.194188 33.542638 -0.164791
2010-10-15 09:42:32 51°31.348 2°53.284 15.4434 4.197986 33.569554 -0.129967
2010-10-15 09:43:32 51°31.518 2°53.527 15.4385 4.195982 33.559304 -0.129967
2010-10-15 09:44:32 51°31.689 2°53.769 15.437 4.195665 33.559668 -0.095143
2010-10-15 09:45:32 51°31.858 2°54.013 15.4569 4.200941 33.601703 -0.129967
2010-10-15 09:46:32 51°32.028 2°54.257 15.4584 4.208855 33.657708 -0.129967
2010-10-15 09:47:32 51°32.196 2°54.501 15.4558 4.211493 33.686406 -0.164791
2010-10-15 09:48:32 51°32.366 2°54.741 15.459 4.214236 33.709645 -0.129967
2010-10-15 09:49:32 51°32.528 2°54.968 15.4544 4.216874 33.731943 -0.095143
2010-10-15 09:50:32 51°32.617 2°55.101 15.449 4.214975 33.719454 -0.095143
2010-10-15 09:51:32 51°32.65 2°55.178 15.4423 4.213603 33.712322 -0.095143
2010-10-15 09:52:32 51°32.656 2°55.214 15.4395 4.211282 33.701187 -0.060319
2010-10-15 09:53:32 51°32.658 2°55.227 15.4364 4.211388 33.701489 -0.129967
2010-10-15 09:54:32 51°32.657 2°55.236 15.441 4.210227 33.702656 -0.129967
2010-10-15 09:55:32 51°32.656 2°55.243 15.4399 4.210544 33.703562 -0.164791
2010-10-15 09:56:32 51°32.654 2°55.25 15.4485 4.209172 33.693217 -0.060319
2010-10-15 09:57:32 51°32.653 2°55.256 15.446 4.209277 33.690313 -0.129967
2010-10-15 09:58:32 51°32.656 2°55.259 15.4486 4.209277 33.68903 -0.060319
2010-10-15 09:59:32 51°32.66 2°55.257 15.4489 4.209594 33.688655 -0.095143
2010-10-15 10:00:32 51°32.667 2°55.253 15.4505 4.209594 33.688655 -0.095143
2010-10-15 10:01:32 51°32.674 2°55.247 15.4533 4.20991 33.690844 -0.060319
2010-10-15 10:02:32 51°32.68 2°55.24 15.4567 4.210332 33.690771 -0.129967
2010-10-15 10:03:32 51°32.685 2°55.236 15.4562 4.210227 33.690469 -0.095143
2010-10-15 10:04:32 51°32.688 2°55.234 15.4522 4.210121 33.689525 -0.095143
2010-10-15 10:05:32 51°32.69 2°55.232 15.4579 4.210016 33.6873 -0.060319
2010-10-15 10:06:32 51°32.692 2°55.232 15.4564 4.20991 33.685074 -0.095143
2010-10-15 10:07:32 51°32.694 2°55.232 15.4551 4.209805 33.68349 -0.060319
2010-10-15 10:08:32 51°32.696 2°55.235 15.4586 4.209699 33.683188 -0.060319
2010-10-15 10:09:32 51°32.697 2°55.237 15.4555 4.209383 33.68228 -0.025495
2010-10-15 10:10:32 51°32.698 2°55.239 15.4572 4.210016 33.684736 -0.060319
2010-10-15 10:11:32 51°32.7 2°55.242 15.4601 4.209699 33.685752 -0.060319
2010-10-15 10:12:32 51°32.701 2°55.246 15.4626 4.210121 33.681834 -0.060319
2010-10-15 10:13:32 51°32.703 2°55.249 15.4546 4.210121 33.683756 -0.025495
2010-10-15 10:14:32 51°32.705 2°55.253 15.461 4.209277 33.678773 0.009329
2010-10-15 10:15:32 51°32.707 2°55.256 15.46 4.209066 33.676886 0.009329
2010-10-15 10:16:32 51°32.71 2°55.259 15.459 4.209172 33.678471 0.044153
2010-10-15 10:17:32 51°32.713 2°55.262 15.4616 4.208328 33.674768 0.009329
2010-10-15 10:18:32 51°32.716 2°55.265 15.4668 4.208644 33.673113 0.044153
2010-10-15 10:19:32 51°32.718 2°55.266 15.4588 4.208538 33.670248 0.044153
2010-10-15 10:20:32 51°32.719 2°55.267 15.4619 4.208644 33.671191 0.044153
2010-10-15 10:21:32 51°32.72 2°55.268 15.4819 4.209277 33.672366 0.078977
2010-10-15 10:22:32 51°32.722 2°55.268 15.4715 4.208855 33.670515 0.044153
2010-10-15 10:23:32 51°32.724 2°55.268 15.4626 4.208855 33.668593 0.078977
2010-10-15 10:24:32 51°32.725 2°55.266 15.4645 4.208538 33.665764 0.078977
2010-10-15 10:25:36 51°32.727 2°55.264 15.4689 4.208749 33.66701 0.078977
2010-10-15 10:26:34 51°32.728 2°55.263 15.4734 4.208538 33.666404 0.113802
2010-10-15 10:27:33 51°32.729 2°55.261 15.4666 4.2078 33.664285 0.044153
2010-10-15 10:28:32 51°32.731 2°55.26 15.4737 4.207483 33.661456 0.078977
2010-10-15 10:29:32 51°32.732 2°55.258 15.4685 4.207694 33.661421 0.078977
2010-10-15 10:30:32 51°32.732 2°55.257 15.4609 4.208327 33.664518 0.078977
2010-10-15 10:31:32 51°32.733 2°55.255 15.4647 4.208433 33.662899 0.044153
2010-10-15 10:32:32 51°32.733 2°55.253 15.4754 4.208327 33.666439 0.044153
2010-10-15 10:33:32 51°32.732 2°55.251 15.4653 4.208011 33.661688 0.009329
2010-10-15 10:34:32 51°32.733 2°55.25 15.474 4.209171 33.669501 -0.060319
2010-10-15 10:35:32 51°32.733 2°55.247 15.4768 4.208644 33.665426 -0.025495
2010-10-15 10:36:32 51°32.733 2°55.245 15.4655 4.209382 33.667545 -0.025495
2010-10-15 10:37:32 51°32.733 2°55.242 15.4485 4.209171 33.669501 -0.025495
2010-10-15 10:38:32 51°32.732 2°55.244 15.4659 4.208749 33.666369 0.009329
2010-10-15 10:39:32 51°32.728 2°55.261 15.4715 4.208433 33.659058 0.009329
2010-10-15 10:40:32 51°32.717 2°55.28 15.4909 4.20896 33.655451 -0.025495
2010-10-15 10:41:32 51°32.697 2°55.285 15.4799 4.210543 33.661273 -0.095143
2010-10-15 10:42:32 51°32.665 2°55.232 15.4671 4.21086 33.66666 -0.129967
2010-10-15 10:43:32 51°32.603 2°55.074 15.4619 4.210438 33.672492 -0.095143
2010-10-15 10:44:32 51°32.472 2°54.857 15.4815 4.209383 33.67459 -0.060319
2010-10-15 10:45:32 51°32.321 2°54.61 15.4843 4.210543 33.678559 0.009329
2010-10-15 10:46:32 51°32.165 2°54.372 15.4918 4.213075 33.683255 -0.060319
2010-10-15 10:47:32 51°32.017 2°54.113 15.4767 4.213497 33.686386 -0.060319
2010-10-15 10:48:32 51°31.871 2°53.856 15.4739 4.201785 33.590075 -0.025495
2010-10-15 10:49:32 51°31.723 2°53.601 15.476 4.199147 33.567154 -0.025495
2010-10-15 10:50:32 51°31.579 2°53.337 15.4781 4.198197 33.555483 -0.060319
2010-10-15 10:51:32 51°31.442 2°53.063 15.4743 4.197775 33.550438 -0.060319
2010-10-15 10:52:32 51°31.342 2°52.816 15.4761 4.196615 33.547727 -0.060319
2010-10-15 10:53:32 51°31.341 2°52.673 15.4762 4.196509 33.546785 -0.095143
2010-10-15 10:54:32 51°31.328 2°52.601 15.479 4.195876 33.540493 -0.095143
2010-10-15 10:55:32 51°31.326 2°52.593 15.4914 4.195243 33.536115 -0.129967
2010-10-15 10:56:33 51°31.325 2°52.605 15.4837 4.196826 33.547061 -0.129967
2010-10-15 10:57:32 51°31.325 2°52.609 15.4812 4.200835 33.582232 -0.199615
2010-10-15 10:58:32 51°31.325 2°52.61 15.4917 4.203157 33.601689 -0.199615
2010-10-15 10:59:32 51°31.324 2°52.608 15.4882 4.203473 33.6026 -0.199615
2010-10-15 11:00:32 51°31.322 2°52.603 15.4943 4.204001 33.604118 -0.234439
2010-10-15 11:01:32 51°31.319 2°52.597 15.4931 4.20284 33.595668 -0.199615
2010-10-15 11:02:32 51°31.317 2°52.591 15.5005 4.201574 33.581806 -0.164791
2010-10-15 11:03:32 51°31.316 2°52.586 15.493 4.199463 33.562961 -0.164791
2010-10-15 11:04:32 51°31.315 2°52.583 15.4937 4.199041 33.555366 -0.164791
2010-10-15 11:05:32 51°31.314 2°52.582 15.4935 4.197459 33.547612 -0.129967
2010-10-15 11:06:32 51°31.312 2°52.584 15.4879 4.197247 33.543177 -0.129967
2010-10-15 11:07:32 51°31.31 2°52.587 15.4835 4.196614 33.540712 -0.095143
2010-10-15 11:08:32 51°31.307 2°52.59 15.4916 4.196087 33.534726 -0.095143
2010-10-15 11:09:32 51°31.304 2°52.59 15.4947 4.196614 33.54135 -0.129967
2010-10-15 11:10:32 51°31.302 2°52.589 15.4845 4.196509 33.54232 -0.095143
2010-10-15 11:11:32 51°31.3 2°52.587 15.5015 4.19577 33.540189 -0.129967
2010-10-15 11:12:32 51°31.299 2°52.586 15.4852 4.195981 33.540798 -0.129967
2010-10-15 11:13:32 51°31.298 2°52.585 15.4814 4.195665 33.538609 -0.129967
2010-10-15 11:14:32 51°31.298 2°52.582 15.4785 4.195454 33.539913 -0.164791
2010-10-15 11:15:32 51°31.298 2°52.578 15.4809 4.195348 33.537695 -0.129967
2010-10-15 11:16:32 51°31.299 2°52.575 15.4865 4.195559 33.542131 -0.199615
2010-10-15 11:17:32 51°31.301 2°52.572 15.4772 4.196826 33.548974 -0.164791
2010-10-15 11:18:32 51°31.301 2°52.571 15.4789 4.195981 33.547177 -0.164791
2010-10-15 11:19:31 51°31.299 2°52.572 15.4822 4.196087 33.545567 -0.199615
2010-10-15 11:20:32 51°31.297 2°52.568 15.4774 4.195876 33.545596 -0.164791
2010-10-15 11:21:32 51°31.296 2°52.563 15.4713 4.191128 33.50319 -0.164791
2010-10-15 11:22:32 51°31.297 2°52.558 15.4753 4.194188 33.534344 -0.164791
2010-10-15 11:23:32 51°31.298 2°52.556 15.475 4.193977 33.532459 -0.129967
2010-10-15 11:24:32 51°31.299 2°52.552 15.4753 4.194082 33.534677 -0.164791
2010-10-15 11:25:32 51°31.3 2°52.551 15.4811 4.19577 33.547206 -0.199615
2010-10-15 11:26:32 51°31.3 2°52.551 15.4764 4.197459 33.558457 -0.164791
2010-10-15 11:27:32 51°31.3 2°52.554 15.4784 4.198092 33.566027 -0.234439
2010-10-15 11:28:32 51°31.299 2°52.557 15.4811 4.198514 33.565329 -0.164791
2010-10-15 11:29:32 51°31.299 2°52.558 15.4836 4.198514 33.567244 -0.164791
2010-10-15 11:30:32 51°31.298 2°52.558 15.4696 4.197037 33.556602 -0.199615
2010-10-15 11:31:32 51°31.296 2°52.561 15.4612 4.193871 33.538533 -0.164791
2010-10-15 11:32:32 51°31.294 2°52.566 15.4635 4.192605 33.530411 -0.129967
2010-10-15 11:33:32 51°31.293 2°52.571 15.463 4.192183 33.526002 -0.129967
2010-10-15 11:34:32 51°31.292 2°52.574 15.4642 4.193027 33.536096 -0.164791
2010-10-15 11:35:32 51°31.29 2°52.576 15.4581 4.191972 33.526668 -0.129967
2010-10-15 11:36:32 51°31.29 2°52.576 15.4581 4.192394 33.53044 -0.129967
2010-10-15 11:37:32 51°31.291 2°52.575 15.463 4.192289 33.530773 -0.129967
2010-10-15 11:38:32 51°31.29 2°52.574 15.4628 4.192394 33.531078 -0.129967
2010-10-15 11:39:32 51°31.289 2°52.571 15.4594 4.192605 33.530411 -0.129967
2010-10-15 11:40:32 51°31.291 2°52.566 15.4642 4.1925 33.530106 -0.129967
2010-10-15 11:41:32 51°31.292 2°52.563 15.4631 4.193344 33.53382 -0.095143
2010-10-15 11:42:32 51°31.291 2°52.563 15.4717 4.193238 33.533515 -0.129967
2010-10-15 11:43:32 51°31.29 2°52.568 15.4658 4.192605 33.527859 -0.129967
2010-10-15 11:44:32 51°31.291 2°52.573 15.463 4.192183 33.525364 -0.129967
2010-10-15 11:45:32 51°31.291 2°52.576 15.4587 4.191655 33.523202 -0.129967
2010-10-15 11:46:32 51°31.29 2°52.575 15.4575 4.190811 33.51885 -0.095143
2010-10-15 11:47:32 51°31.29 2°52.574 15.4582 4.191128 33.52104 -0.095143
2010-10-15 11:48:32 51°31.29 2°52.571 15.4602 4.191444 33.525782 -0.129967
2010-10-15 11:49:32 51°31.289 2°52.571 15.4623 4.192922 33.535154 -0.129967
2010-10-15 11:50:32 51°31.289 2°52.569 15.4633 4.193766 33.543334 -0.164791
2010-10-15 11:51:32 51°31.29 2°52.568 15.4602 4.19461 33.547685 -0.129967
2010-10-15 11:52:32 51°31.29 2°52.566 15.4617 4.195243 33.555258 -0.164791
2010-10-15 11:53:32 51°31.291 2°52.566 15.4639 4.195876 33.559638 -0.129967
2010-10-15 11:54:32 51°31.291 2°52.566 15.4662 4.195982 33.559304 -0.129967
2010-10-15 11:55:32 51°31.29 2°52.568 15.4641 4.195349 33.554285 -0.129967
2010-10-15 11:56:32 51°31.29 2°52.57 15.4612 4.194821 33.550848 -0.164791
2010-10-15 11:57:32 51°31.29 2°52.571 15.4666 4.194927 33.551152 -0.164791
2010-10-15 11:58:32 51°31.289 2°52.572 15.4646 4.195138 33.554315 -0.164791
2010-10-15 11:59:32 51°31.29 2°52.574 15.469 4.196087 33.558969 -0.164791
2010-10-15 12:00:32 51°31.29 2°52.574 15.4681 4.195982 33.558027 -0.164791
2010-10-15 12:01:32 51°31.29 2°52.574 15.4621 4.19556 33.553617 -0.129967
2010-10-15 12:02:32 51°31.297 2°52.572 15.4633 4.194821 33.549571 -0.164791
2010-10-15 12:03:32 51°31.306 2°52.569 15.4675 4.194293 33.546134 -0.164791
2010-10-15 12:04:32 51°31.311 2°52.569 15.4681 4.194399 33.545162 -0.129967
2010-10-15 12:05:32 51°31.31 2°52.569 15.4683 4.194293 33.542304 -0.129967
2010-10-15 12:06:32 51°31.305 2°52.571 15.4696 4.193977 33.539476 -0.129967
2010-10-15 12:07:32 51°31.307 2°52.596 15.4649 4.193871 33.539172 -0.095143
2010-10-15 12:08:32 51°31.291 2°52.662 15.4611 4.193449 33.539868 -0.060319
2010-10-15 12:09:32 51°31.212 2°52.717 15.4648 4.189334 33.49609 -0.095143
2010-10-15 12:10:32 51°31.054 2°52.754 15.7355 0.116053 0.711185 -0.617504
2010-10-15 12:11:32 51°30.841 2°52.78 15.8344 0.08025 0.484478 -0.617504
2010-10-15 12:12:32 51°30.608 2°52.797 15.9406 0.070469 0.423065 -0.617504
2010-10-15 12:13:32 51°30.38 2°52.822 16.0667 0.064227 0.383937 -0.652328
2010-10-15 12:14:32 51°30.156 2°52.838 16.1766 0.233223 1.304138 -0.652328
2010-10-15 12:15:32 51°29.925 2°52.856 16.2772 0.080145 0.429081 -0.652328
2010-10-15 12:16:32 51°29.699 2°52.875 16.3612 0.066411 0.356753 -0.652328
2010-10-15 12:17:32 51°29.474 2°52.895 16.4781 0.064018 0.345818 -0.652328
2010-10-15 12:18:32 51°29.246 2°52.913 16.5788 0.062249 0.336669 -0.652328
2010-10-15 12:19:32 51°29.084 2°52.926 16.6926 0.061209 0.332961 -0.652328
2010-10-15 12:20:32 51°28.977 2°52.929 16.7812 0.060377 0.330485 -0.617504
2010-10-15 12:21:32 51°28.885 2°52.929 16.8775 0.059856 0.330157 -0.652328
2010-10-15 12:22:32 51°28.798 2°52.929 16.9547 0.059232 0.329652 -0.652328
2010-10-15 12:23:32 51°28.659 2°52.938 17.0346 0.058504 0.328821 -0.617504
2010-10-15 12:24:31 51°28.445 2°52.964 17.1033 0.057984 0.327812 -0.617504
2010-10-15 12:25:32 51°28.214 2°52.983 17.1727 0.057672 0.328383 -0.652328
2010-10-15 12:26:32 51°27.986 2°53.003 17.2763 0.057256 0.327914 -0.617504
2010-10-15 12:27:32 51°27.761 2°53.027 17.367 0.05684 0.326562 -0.652328
2010-10-15 12:28:32 51°27.535 2°53.048 17.4421 0.056632 0.326196 -0.652328
2010-10-15 12:29:32 51°27.305 2°53.066 17.5386 0.056528 0.326239 -0.652328
2010-10-15 12:30:32 51°27.074 2°53.076 17.5848 0.056424 0.326265 -0.652328
2010-10-15 12:31:32 51°26.844 2°53.088 17.723 0.05632 0.326183 -0.617504
2010-10-15 12:32:32 51°26.618 2°53.111 17.7637 0.056216 0.326016 -0.617504
2010-10-15 12:33:32 51°26.391 2°53.127 17.8618 0.056112 0.325656 -0.617504
2010-10-15 12:34:32 51°26.167 2°53.159 17.8972 0.056112 0.325815 -0.652328
2010-10-15 12:35:32 51°25.94 2°53.178 17.9635 0.056008 0.325409 -0.652328
2010-10-15 12:36:32 51°25.717 2°53.22 18.0554 0.056112 0.326169 -0.617504
2010-10-15 12:37:32 51°25.493 2°53.273 18.0861 0.056008 0.32554 -0.617504
2010-10-15 12:38:32 51°25.267 2°53.321 18.1583 0.056008 0.325568 -0.652328
2010-10-15 12:39:32 51°25.04 2°53.364 18.2574 0.056008 0.325722 -0.652328
2010-10-15 12:40:32 51°24.81 2°53.406 18.2819 0.055904 0.325252 -0.617504
2010-10-15 12:41:32 51°24.583 2°53.457 18.3558 0.055904 0.325452 -0.617504
2010-10-15 12:42:32 51°24.355 2°53.499 18.3891 0.055904 0.325657 -0.617504
2010-10-15 12:43:32 51°24.121 2°53.492 18.4556 0.055904 0.325686 -0.617504
2010-10-15 12:44:32 51°23.89 2°53.427 18.5246 0.0558 0.325107 -0.652328
2010-10-15 12:45:32 51°23.662 2°53.341 18.5833 0.0558 0.325215 -0.652328
2010-10-15 12:46:32 51°23.436 2°53.233 18.6315 0.0558 0.32541 -0.652328
2010-10-15 12:47:32 51°23.209 2°53.128 18.7093 0.055696 0.324927 -0.617504
2010-10-15 12:48:32 51°22.984 2°53.026 18.7574 0.055696 0.324853 -0.652328
2010-10-15 12:49:32 51°22.761 2°52.931 18.8087 0.055696 0.324967 -0.617504
2010-10-15 12:50:32 51°22.539 2°52.837 18.8517 0.055696 0.325202 -0.617504
2010-10-15 12:51:32 51°22.334 2°52.675 18.9243 0.055592 0.324816 -0.617504
2010-10-15 12:52:32 51°22.145 2°52.464 18.9562 0.055592 0.325045 -0.652328
2010-10-15 12:53:32 51°21.967 2°52.23 18.9922 0.055592 0.325142 -0.687152
2010-10-15 12:54:32 51°21.791 2°51.989 19.0315 0.055488 0.32459 -0.652328
2010-10-15 12:55:32 51°21.613 2°51.751 19.0476 0.055488 0.32471 -0.617504
2010-10-15 12:56:32 51°21.428 2°51.531 19.0537 0.055488 0.324836 -0.652328
2010-10-15 12:57:32 51°21.217 2°51.389 19.0106 0.055384 0.324392 -0.652328
2010-10-15 12:58:31 51°20.997 2°51.299 19.0978 0.055384 0.324495 -0.652328
2010-10-15 12:59:32 51°20.769 2°51.212 19.0941 0.055384 0.324524 -0.652328
2010-10-15 13:00:32 51°20.539 2°51.148 19.181 0.055384 0.324466 -0.687152
2010-10-15 13:01:32 51°20.314 2°51.13 19.2255 0.055384 0.324392 -0.617504
2010-10-15 13:02:32 51°20.089 2°51.167 19.1606 0.055384 0.324352 -0.652328
2010-10-15 13:03:32 51°19.863 2°51.205 19.2038 0.055488 0.324962 -0.652328
2010-10-15 13:04:32 51°19.633 2°51.243 19.2409 0.055488 0.324848 -0.652328
2010-10-15 13:05:32 51°19.403 2°51.274 19.1876 0.055488 0.324721 -0.617504
2010-10-15 13:06:32 51°19.175 2°51.312 19.378 0.055384 0.324048 -0.687152
2010-10-15 13:07:32 51°18.947 2°51.373 19.3982 0.055488 0.32471 -0.652328
2010-10-15 13:08:32 51°18.722 2°51.44 19.3808 0.055384 0.324134 -0.687152
2010-10-15 13:09:32 51°18.501 2°51.518 19.3354 0.055384 0.32418 -0.652328
2010-10-15 13:10:32 51°18.278 2°51.602 19.4931 0.055488 0.324762 -0.652328
2010-10-15 13:11:32 51°18.055 2°51.691 19.5158 0.055384 0.324203 -0.652328
2010-10-15 13:12:32 51°17.838 2°51.784 19.5364 0.055384 0.32422 -0.652328
2010-10-15 13:13:32 51°17.621 2°51.896 19.5919 0.055384 0.324306 -0.652328
2010-10-15 13:14:32 51°17.411 2°52.035 19.6783 0.055384 0.32434 -0.58268
2010-10-15 13:15:32 51°17.201 2°52.184 19.6639 0.055384 0.324369 -0.652328
2010-10-15 13:16:32 51°16.998 2°52.341 19.7003 0.055384 0.324317 -0.652328
2010-10-15 13:17:32 51°16.798 2°52.505 19.6963 0.055384 0.324312 -0.687152
2010-10-15 13:18:32 51°16.596 2°52.674 19.7838 0.055279 0.323695 -0.652328
2010-10-15 13:19:32 51°16.406 2°52.859 19.8316 0.055279 0.323832 -0.652328
2010-10-15 13:20:32 51°16.216 2°53.04 19.8292 0.05528 0.324022 -0.652328
2010-10-15 13:21:32 51°16.027 2°53.216 19.8676 0.05528 0.324079 -0.652328
2010-10-15 13:22:32 51°15.845 2°53.404 20.391 0.05528 0.324079 -0.652328
2010-10-15 13:23:32 51°15.661 2°53.592 20.3864 0.05528 0.324073 -0.652328
2010-10-15 13:24:32 51°15.481 2°53.788 20.4051 0.05528 0.324056 -0.687152
2010-10-15 13:25:32 51°15.306 2°53.995 20.4524 0.05528 0.324044 -0.652328
2010-10-15 13:26:32 51°15.134 2°54.203 20.477 0.05528 0.32397 -0.652328
2010-10-15 13:27:31 51°14.98 2°54.425 20.5175 0.05528 0.323936 -0.687152
2010-10-15 13:28:32 51°14.823 2°54.632 20.5418 0.055279 0.323861 -0.652328
2010-10-15 13:29:32 51°14.674 2°54.822 20.5764 0.055279 0.32377 -0.652328
2010-10-15 13:30:32 51°14.546 2°54.972 20.6055 0.055384 0.3243 -0.652328
2010-10-15 13:31:32 51°14.424 2°55.123 20.6368 0.055384 0.324231 -0.687152
2010-10-15 13:32:32 51°14.284 2°55.269 20.6625 0.055384 0.324163 -0.687152
2010-10-15 13:33:32 51°14.163 2°55.371 20.7021 0.055384 0.324094 -0.652328
2010-10-15 13:34:32 51°14.049 2°55.454 20.7375 0.055488 0.324647 -0.652328
2010-10-15 13:35:32 51°13.916 2°55.552 20.7519 0.055488 0.324578 -0.652328
2010-10-15 13:36:31 51°13.806 2°55.649 20.7935 0.055488 0.32451 -0.652328
2010-10-15 13:37:32 51°13.744 2°55.75 20.8027 0.055488 0.324441 -0.652328
2010-10-15 13:38:32 51°13.699 2°55.841 20.8278 0.055592 0.324993 -0.687152
2010-10-15 13:39:32 51°13.669 2°55.929 20.8423 0.055592 0.32493 -0.652328